sensor_id;sensor_type;location;lat;lon;timestamp;temperature;humidity
67557;DHT22;54387;53.526;49.300;2023-01-24T00:02:24;-7.70;57.70
67557;DHT22;54387;53.526;49.300;2023-01-24T00:04:50;-7.70;57.60
67557;DHT22;54387;53.526;49.300;2023-01-24T00:07:16;-7.80;57.40
67557;DHT22;54387;53.526;49.300;2023-01-24T00:09:42;-7.80;57.50
67557;DHT22;54387;53.526;49.300;2023-01-24T00:12:08;-7.80;57.40
67557;DHT22;54387;53.526;49.300;2023-01-24T00:14:34;-7.90;57.30
67557;DHT22;54387;53.526;49.300;2023-01-24T00:17:00;-7.90;57.40
67557;DHT22;54387;53.526;49.300;2023-01-24T00:19:26;-7.90;57.50
67557;DHT22;54387;53.526;49.300;2023-01-24T00:21:52;-8.00;57.40
67557;DHT22;54387;53.526;49.300;2023-01-24T00:24:18;-8.00;57.40
67557;DHT22;54387;53.526;49.300;2023-01-24T00:26:44;-8.00;57.40
67557;DHT22;54387;53.526;49.300;2023-01-24T00:29:10;-8.00;57.40
67557;DHT22;54387;53.526;49.300;2023-01-24T00:31:36;-8.00;57.40
67557;DHT22;54387;53.526;49.300;2023-01-24T00:34:02;-8.10;57.50
67557;DHT22;54387;53.526;49.300;2023-01-24T00:36:28;-8.10;57.50
67557;DHT22;54387;53.526;49.300;2023-01-24T00:38:54;-8.20;57.50
67557;DHT22;54387;53.526;49.300;2023-01-24T00:41:20;-8.20;57.50
67557;DHT22;54387;53.526;49.300;2023-01-24T00:43:46;-8.30;57.60
67557;DHT22;54387;53.526;49.300;2023-01-24T00:46:12;-8.30;57.60
67557;DHT22;54387;53.526;49.300;2023-01-24T00:48:38;-8.30;57.70
67557;DHT22;54387;53.526;49.300;2023-01-24T00:51:04;-8.40;57.70
67557;DHT22;54387;53.526;49.300;2023-01-24T00:53:30;-8.40;58.00
67557;DHT22;54387;53.526;49.300;2023-01-24T00:55:56;-8.40;58.00
67557;DHT22;54387;53.526;49.300;2023-01-24T00:58:22;-8.40;58.00
67557;DHT22;54387;53.526;49.300;2023-01-24T01:00:48;-8.30;58.10
67557;DHT22;54387;53.526;49.300;2023-01-24T01:03:18;-8.30;58.00
67557;DHT22;54387;53.526;49.300;2023-01-24T01:05:44;-8.30;58.00
67557;DHT22;54387;53.526;49.300;2023-01-24T01:08:10;-8.40;57.80
67557;DHT22;54387;53.526;49.300;2023-01-24T01:10:36;-8.40;57.90
67557;DHT22;54387;53.526;49.300;2023-01-24T01:13:03;-8.40;58.00
67557;DHT22;54387;53.526;49.300;2023-01-24T01:15:29;-8.30;58.20
67557;DHT22;54387;53.526;49.300;2023-01-24T01:17:56;-8.30;58.10
67557;DHT22;54387;53.526;49.300;2023-01-24T01:20:22;-8.30;58.30
67557;DHT22;54387;53.526;49.300;2023-01-24T01:22:48;-8.20;58.30
67557;DHT22;54387;53.526;49.300;2023-01-24T01:25:14;-8.20;58.20
67557;DHT22;54387;53.526;49.300;2023-01-24T01:27:40;-8.20;58.20
67557;DHT22;54387;53.526;49.300;2023-01-24T01:30:06;-8.20;58.10
67557;DHT22;54387;53.526;49.300;2023-01-24T01:32:32;-8.20;58.10
67557;DHT22;54387;53.526;49.300;2023-01-24T01:34:58;-8.20;58.20
67557;DHT22;54387;53.526;49.300;2023-01-24T01:37:24;-8.20;58.30
67557;DHT22;54387;53.526;49.300;2023-01-24T01:39:51;-8.20;58.30
67557;DHT22;54387;53.526;49.300;2023-01-24T01:42:17;-8.20;58.20
67557;DHT22;54387;53.526;49.300;2023-01-24T01:44:43;-8.20;58.20
67557;DHT22;54387;53.526;49.300;2023-01-24T01:49:39;-8.30;58.20
67557;DHT22;54387;53.526;49.300;2023-01-24T01:52:06;-8.30;59.10
67557;DHT22;54387;53.526;49.300;2023-01-24T01:54:37;-8.30;58.20
67557;DHT22;54387;53.526;49.300;2023-01-24T01:57:08;-8.40;58.10
67557;DHT22;54387;53.526;49.300;2023-01-24T01:59:36;-8.40;58.20
67557;DHT22;54387;53.526;49.300;2023-01-24T02:02:04;-8.50;58.30
67557;DHT22;54387;53.526;49.300;2023-01-24T02:04:33;-8.50;58.40
67557;DHT22;54387;53.526;49.300;2023-01-24T02:09:42;-8.50;58.40
67557;DHT22;54387;53.526;49.300;2023-01-24T02:12:12;-8.60;58.30
67557;DHT22;54387;53.526;49.300;2023-01-24T02:14:40;-8.60;59.20
67557;DHT22;54387;53.526;49.300;2023-01-24T02:17:25;-8.70;58.10
67557;DHT22;54387;53.526;49.300;2023-01-24T02:22:29;-8.80;58.10
67557;DHT22;54387;53.526;49.300;2023-01-24T02:25:06;-8.90;58.20
67557;DHT22;54387;53.526;49.300;2023-01-24T02:27:34;-8.90;58.20
67557;DHT22;54387;53.526;49.300;2023-01-24T02:30:00;-9.00;58.20
67557;DHT22;54387;53.526;49.300;2023-01-24T02:32:26;-9.00;58.50
67557;DHT22;54387;53.526;49.300;2023-01-24T02:34:52;-9.10;58.40
67557;DHT22;54387;53.526;49.300;2023-01-24T02:37:19;-9.10;58.50
67557;DHT22;54387;53.526;49.300;2023-01-24T02:42:41;-9.10;58.50
67557;DHT22;54387;53.526;49.300;2023-01-24T02:47:37;-9.10;58.40
67557;DHT22;54387;53.526;49.300;2023-01-24T02:50:04;-9.20;58.40
67557;DHT22;54387;53.526;49.300;2023-01-24T02:52:32;-9.20;58.50
67557;DHT22;54387;53.526;49.300;2023-01-24T02:55:16;-9.20;58.50
67557;DHT22;54387;53.526;49.300;2023-01-24T02:57:42;-9.20;58.50
67557;DHT22;54387;53.526;49.300;2023-01-24T03:00:27;-9.20;58.50
67557;DHT22;54387;53.526;49.300;2023-01-24T03:02:52;-9.20;58.50
67557;DHT22;54387;53.526;49.300;2023-01-24T03:05:18;-9.30;59.50
67557;DHT22;54387;53.526;49.300;2023-01-24T03:07:44;-9.30;58.50
67557;DHT22;54387;53.526;49.300;2023-01-24T03:10:11;-9.30;58.50
67557;DHT22;54387;53.526;49.300;2023-01-24T03:12:38;-9.40;58.40
67557;DHT22;54387;53.526;49.300;2023-01-24T03:15:23;-9.40;58.50
67557;DHT22;54387;53.526;49.300;2023-01-24T03:18:07;-9.40;58.50
67557;DHT22;54387;53.526;49.300;2023-01-24T03:20:52;-9.50;58.60
67557;DHT22;54387;53.526;49.300;2023-01-24T03:23:36;-9.50;58.60
67557;DHT22;54387;53.526;49.300;2023-01-24T03:26:21;-9.50;58.60
67557;DHT22;54387;53.526;49.300;2023-01-24T03:29:05;-9.60;58.60
67557;DHT22;54387;53.526;49.300;2023-01-24T03:31:50;-9.60;58.60
67557;DHT22;54387;53.526;49.300;2023-01-24T03:34:34;-9.60;58.50
67557;DHT22;54387;53.526;49.300;2023-01-24T03:37:11;-9.60;58.60
67557;DHT22;54387;53.526;49.300;2023-01-24T03:39:37;-9.60;58.70
67557;DHT22;54387;53.526;49.300;2023-01-24T03:42:22;-9.60;58.60
67557;DHT22;54387;53.526;49.300;2023-01-24T03:44:48;-9.60;58.60
67557;DHT22;54387;53.526;49.300;2023-01-24T03:47:14;-9.70;58.60
67557;DHT22;54387;53.526;49.300;2023-01-24T03:49:40;-9.70;58.60
67557;DHT22;54387;53.526;49.300;2023-01-24T03:52:24;-9.70;58.60
67557;DHT22;54387;53.526;49.300;2023-01-24T03:54:50;-9.70;58.70
67557;DHT22;54387;53.526;49.300;2023-01-24T03:57:16;-9.80;58.70
67557;DHT22;54387;53.526;49.300;2023-01-24T03:59:42;-9.70;58.80
67557;DHT22;54387;53.526;49.300;2023-01-24T04:02:08;-9.80;58.70
67557;DHT22;54387;53.526;49.300;2023-01-24T04:04:34;-9.80;58.70
67557;DHT22;54387;53.526;49.300;2023-01-24T04:07:18;-9.80;58.70
67557;DHT22;54387;53.526;49.300;2023-01-24T04:09:44;-9.80;58.70
67557;DHT22;54387;53.526;49.300;2023-01-24T04:12:10;-9.80;58.80
67557;DHT22;54387;53.526;49.300;2023-01-24T04:14:36;-9.80;58.80
67557;DHT22;54387;53.526;49.300;2023-01-24T04:17:02;-9.90;58.70
67557;DHT22;54387;53.526;49.300;2023-01-24T04:19:28;-9.90;58.80
67557;DHT22;54387;53.526;49.300;2023-01-24T04:21:54;-9.90;58.90
67557;DHT22;54387;53.526;49.300;2023-01-24T04:24:22;-9.90;59.00
67557;DHT22;54387;53.526;49.300;2023-01-24T04:26:48;-9.90;59.00
67557;DHT22;54387;53.526;49.300;2023-01-24T04:29:14;-9.90;59.00
67557;DHT22;54387;53.526;49.300;2023-01-24T04:31:40;-9.90;59.00
67557;DHT22;54387;53.526;49.300;2023-01-24T04:34:06;-9.90;59.00
67557;DHT22;54387;53.526;49.300;2023-01-24T04:36:32;-9.90;59.00
67557;DHT22;54387;53.526;49.300;2023-01-24T04:38:59;-9.90;59.00
67557;DHT22;54387;53.526;49.300;2023-01-24T04:41:24;-9.90;59.00
67557;DHT22;54387;53.526;49.300;2023-01-24T04:43:50;-9.90;59.00
67557;DHT22;54387;53.526;49.300;2023-01-24T04:46:16;-9.90;59.00
67557;DHT22;54387;53.526;49.300;2023-01-24T04:48:42;-9.90;59.10
67557;DHT22;54387;53.526;49.300;2023-01-24T04:51:08;-9.90;59.10
67557;DHT22;54387;53.526;49.300;2023-01-24T04:53:37;-9.90;59.10
67557;DHT22;54387;53.526;49.300;2023-01-24T04:56:04;-9.80;59.20
67557;DHT22;54387;53.526;49.300;2023-01-24T04:58:30;-9.80;59.20
67557;DHT22;54387;53.526;49.300;2023-01-24T05:00:56;-9.80;59.20
67557;DHT22;54387;53.526;49.300;2023-01-24T05:03:22;-9.80;59.20
67557;DHT22;54387;53.526;49.300;2023-01-24T05:05:49;-9.80;59.20
67557;DHT22;54387;53.526;49.300;2023-01-24T05:08:15;-9.70;59.30
67557;DHT22;54387;53.526;49.300;2023-01-24T05:10:41;-9.70;59.30
67557;DHT22;54387;53.526;49.300;2023-01-24T05:13:07;-9.70;59.30
67557;DHT22;54387;53.526;49.300;2023-01-24T05:15:33;-9.60;59.40
67557;DHT22;54387;53.526;49.300;2023-01-24T05:17:59;-9.60;59.40
67557;DHT22;54387;53.526;49.300;2023-01-24T05:20:25;-9.60;59.40
67557;DHT22;54387;53.526;49.300;2023-01-24T05:22:51;-9.60;59.40
67557;DHT22;54387;53.526;49.300;2023-01-24T05:25:17;-9.60;59.40
67557;DHT22;54387;53.526;49.300;2023-01-24T05:27:43;-9.50;59.60
67557;DHT22;54387;53.526;49.300;2023-01-24T05:30:10;-9.50;59.50
67557;DHT22;54387;53.526;49.300;2023-01-24T05:32:36;-9.40;59.50
67557;DHT22;54387;53.526;49.300;2023-01-24T05:35:03;-9.40;59.50
67557;DHT22;54387;53.526;49.300;2023-01-24T05:37:29;-9.40;59.50
67557;DHT22;54387;53.526;49.300;2023-01-24T05:39:55;-9.30;59.70
67557;DHT22;54387;53.526;49.300;2023-01-24T05:42:21;-9.30;59.60
67557;DHT22;54387;53.526;49.300;2023-01-24T05:44:47;-9.30;59.50
67557;DHT22;54387;53.526;49.300;2023-01-24T05:47:13;-9.20;59.60
67557;DHT22;54387;53.526;49.300;2023-01-24T05:49:39;-9.20;59.70
67557;DHT22;54387;53.526;49.300;2023-01-24T05:52:05;-9.20;59.70
67557;DHT22;54387;53.526;49.300;2023-01-24T05:54:31;-9.10;59.80
67557;DHT22;54387;53.526;49.300;2023-01-24T05:56:57;-9.00;59.80
67557;DHT22;54387;53.526;49.300;2023-01-24T05:59:22;-9.00;59.90
67557;DHT22;54387;53.526;49.300;2023-01-24T06:01:48;-8.90;60.00
67557;DHT22;54387;53.526;49.300;2023-01-24T06:04:14;-8.80;60.00
67557;DHT22;54387;53.526;49.300;2023-01-24T06:06:40;-8.70;60.00
67557;DHT22;54387;53.526;49.300;2023-01-24T06:09:07;-8.60;60.00
67557;DHT22;54387;53.526;49.300;2023-01-24T06:11:34;-8.50;60.10
67557;DHT22;54387;53.526;49.300;2023-01-24T06:14:00;-8.40;60.10
67557;DHT22;54387;53.526;49.300;2023-01-24T06:16:26;-8.30;60.10
67557;DHT22;54387;53.526;49.300;2023-01-24T06:18:53;-8.30;60.10
67557;DHT22;54387;53.526;49.300;2023-01-24T06:24:00;-8.00;60.20
67557;DHT22;54387;53.526;49.300;2023-01-24T06:26:26;-7.80;60.20
67557;DHT22;54387;53.526;49.300;2023-01-24T06:28:52;-7.70;60.20
67557;DHT22;54387;53.526;49.300;2023-01-24T06:31:21;-7.60;60.00
67557;DHT22;54387;53.526;49.300;2023-01-24T06:34:38;-7.50;60.00
67557;DHT22;54387;53.526;49.300;2023-01-24T06:39:06;-7.20;60.00
67557;DHT22;54387;53.526;49.300;2023-01-24T06:41:33;-7.20;60.00
67557;DHT22;54387;53.526;49.300;2023-01-24T06:44:00;-7.00;60.00
67557;DHT22;54387;53.526;49.300;2023-01-24T06:46:26;-6.90;59.90
67557;DHT22;54387;53.526;49.300;2023-01-24T06:48:52;-6.80;59.90
67557;DHT22;54387;53.526;49.300;2023-01-24T06:51:18;-6.80;59.80
67557;DHT22;54387;53.526;49.300;2023-01-24T06:53:44;-6.70;59.80
67557;DHT22;54387;53.526;49.300;2023-01-24T06:56:10;-6.60;59.70
67557;DHT22;54387;53.526;49.300;2023-01-24T06:58:36;-6.50;59.70
67557;DHT22;54387;53.526;49.300;2023-01-24T07:01:02;-6.40;59.70
67557;DHT22;54387;53.526;49.300;2023-01-24T07:03:28;-6.30;59.70
67557;DHT22;54387;53.526;49.300;2023-01-24T07:05:54;-6.30;59.60
67557;DHT22;54387;53.526;49.300;2023-01-24T07:08:20;-6.20;59.50
67557;DHT22;54387;53.526;49.300;2023-01-24T07:10:47;-6.10;59.40
67557;DHT22;54387;53.526;49.300;2023-01-24T07:13:13;-6.00;59.30
67557;DHT22;54387;53.526;49.300;2023-01-24T07:15:39;-6.00;59.10
67557;DHT22;54387;53.526;49.300;2023-01-24T07:18:08;-5.90;59.20
67557;DHT22;54387;53.526;49.300;2023-01-24T07:20:36;-5.80;59.20
67557;DHT22;54387;53.526;49.300;2023-01-24T07:23:02;-5.70;59.00
67557;DHT22;54387;53.526;49.300;2023-01-24T07:25:28;-5.60;58.40
67557;DHT22;54387;53.526;49.300;2023-01-24T07:27:55;-5.50;58.50
67557;DHT22;54387;53.526;49.300;2023-01-24T07:30:21;-5.50;58.40
67557;DHT22;54387;53.526;49.300;2023-01-24T07:32:47;-5.40;58.30
67557;DHT22;54387;53.526;49.300;2023-01-24T07:35:13;-5.30;58.10
67557;DHT22;54387;53.526;49.300;2023-01-24T07:37:39;-5.20;58.10
67557;DHT22;54387;53.526;49.300;2023-01-24T07:40:05;-5.10;58.00
67557;DHT22;54387;53.526;49.300;2023-01-24T07:42:31;-5.00;57.90
67557;DHT22;54387;53.526;49.300;2023-01-24T07:44:57;-4.90;57.90
67557;DHT22;54387;53.526;49.300;2023-01-24T07:47:26;-4.80;57.60
67557;DHT22;54387;53.526;49.300;2023-01-24T07:49:52;-4.70;57.40
67557;DHT22;54387;53.526;49.300;2023-01-24T07:52:18;-4.70;57.30
67557;DHT22;54387;53.526;49.300;2023-01-24T07:54:44;-4.60;57.30
67557;DHT22;54387;53.526;49.300;2023-01-24T07:57:10;-4.50;57.30
67557;DHT22;54387;53.526;49.300;2023-01-24T07:59:36;-4.40;57.20
67557;DHT22;54387;53.526;49.300;2023-01-24T08:02:02;-4.40;57.00
67557;DHT22;54387;53.526;49.300;2023-01-24T08:04:28;-4.30;56.80
67557;DHT22;54387;53.526;49.300;2023-01-24T08:06:54;-4.20;56.60
67557;DHT22;54387;53.526;49.300;2023-01-24T08:09:38;-4.20;56.50
67557;DHT22;54387;53.526;49.300;2023-01-24T08:12:04;-4.10;56.40
67557;DHT22;54387;53.526;49.300;2023-01-24T08:14:30;-4.00;56.00
67557;DHT22;54387;53.526;49.300;2023-01-24T08:16:56;-4.00;57.00
67557;DHT22;54387;53.526;49.300;2023-01-24T08:19:22;-3.90;56.90
67557;DHT22;54387;53.526;49.300;2023-01-24T08:21:48;-3.90;55.60
67557;DHT22;54387;53.526;49.300;2023-01-24T08:24:14;-3.80;55.40
67557;DHT22;54387;53.526;49.300;2023-01-24T08:26:40;-3.80;54.70
67557;DHT22;54387;53.526;49.300;2023-01-24T08:29:06;-3.80;54.80
67557;DHT22;54387;53.526;49.300;2023-01-24T08:31:32;-3.70;54.40
67557;DHT22;54387;53.526;49.300;2023-01-24T08:33:58;-3.70;54.60
67557;DHT22;54387;53.526;49.300;2023-01-24T08:36:24;-3.60;54.40
67557;DHT22;54387;53.526;49.300;2023-01-24T08:38:50;-3.50;54.60
67557;DHT22;54387;53.526;49.300;2023-01-24T08:41:16;-3.50;54.60
67557;DHT22;54387;53.526;49.300;2023-01-24T08:43:42;-3.30;54.80
67557;DHT22;54387;53.526;49.300;2023-01-24T08:46:08;-3.30;54.60
67557;DHT22;54387;53.526;49.300;2023-01-24T08:48:34;-3.20;54.80
67557;DHT22;54387;53.526;49.300;2023-01-24T08:51:02;-3.10;54.60
67557;DHT22;54387;53.526;49.300;2023-01-24T08:53:28;-3.10;54.30
67557;DHT22;54387;53.526;49.300;2023-01-24T08:55:54;-3.10;54.30
67557;DHT22;54387;53.526;49.300;2023-01-24T08:58:20;-3.00;54.20
67557;DHT22;54387;53.526;49.300;2023-01-24T09:00:46;-2.90;54.40
67557;DHT22;54387;53.526;49.300;2023-01-24T09:03:14;-2.90;54.30
67557;DHT22;54387;53.526;49.300;2023-01-24T09:05:41;-2.80;54.40
67557;DHT22;54387;53.526;49.300;2023-01-24T09:08:31;-2.70;54.20
67557;DHT22;54387;53.526;49.300;2023-01-24T09:10:58;-2.70;54.00
67557;DHT22;54387;53.526;49.300;2023-01-24T09:13:25;-2.60;54.10
67557;DHT22;54387;53.526;49.300;2023-01-24T09:15:51;-2.60;54.00
67557;DHT22;54387;53.526;49.300;2023-01-24T09:18:17;-2.50;54.00
67557;DHT22;54387;53.526;49.300;2023-01-24T09:20:43;-2.40;54.00
67557;DHT22;54387;53.526;49.300;2023-01-24T09:23:10;-2.40;53.70
67557;DHT22;54387;53.526;49.300;2023-01-24T09:25:37;-2.40;53.70
67557;DHT22;54387;53.526;49.300;2023-01-24T09:28:04;-2.30;53.80
67557;DHT22;54387;53.526;49.300;2023-01-24T09:30:30;-2.20;54.00
67557;DHT22;54387;53.526;49.300;2023-01-24T09:32:56;-2.20;53.70
67557;DHT22;54387;53.526;49.300;2023-01-24T09:35:22;-2.10;53.30
67557;DHT22;54387;53.526;49.300;2023-01-24T09:37:50;-2.10;53.40
67557;DHT22;54387;53.526;49.300;2023-01-24T09:40:24;-2.00;53.40
67557;DHT22;54387;53.526;49.300;2023-01-24T09:45:27;-1.80;53.70
67557;DHT22;54387;53.526;49.300;2023-01-24T09:48:01;-1.60;54.20
67557;DHT22;54387;53.526;49.300;2023-01-24T09:52:55;-1.40;53.90
67557;DHT22;54387;53.526;49.300;2023-01-24T09:55:27;-1.30;53.40
67557;DHT22;54387;53.526;49.300;2023-01-24T10:00:44;-1.10;52.80
67557;DHT22;54387;53.526;49.300;2023-01-24T10:03:20;-0.90;52.30
67557;DHT22;54387;53.526;49.300;2023-01-24T10:05:49;-0.70;52.10
67557;DHT22;54387;53.526;49.300;2023-01-24T10:08:19;-0.40;51.50
67557;DHT22;54387;53.526;49.300;2023-01-24T10:13:57;-0.20;50.20
67557;DHT22;54387;53.526;49.300;2023-01-24T10:16:46;0.10;50.40
67557;DHT22;54387;53.526;49.300;2023-01-24T10:24:23;0.90;46.80
67557;DHT22;54387;53.526;49.300;2023-01-24T10:26:51;1.20;47.20
67557;DHT22;54387;53.526;49.300;2023-01-24T10:29:22;1.70;47.60
67557;DHT22;54387;53.526;49.300;2023-01-24T10:31:52;2.00;47.30
67557;DHT22;54387;53.526;49.300;2023-01-24T10:34:37;2.10;45.90
67557;DHT22;54387;53.526;49.300;2023-01-24T10:39:36;1.80;46.60
67557;DHT22;54387;53.526;49.300;2023-01-24T10:42:02;2.00;47.00
67557;DHT22;54387;53.526;49.300;2023-01-24T10:44:37;2.20;46.20
67557;DHT22;54387;53.526;49.300;2023-01-24T10:47:28;2.30;45.70
67557;DHT22;54387;53.526;49.300;2023-01-24T10:50:01;2.40;45.30
67557;DHT22;54387;53.526;49.300;2023-01-24T10:52:27;2.40;45.30
67557;DHT22;54387;53.526;49.300;2023-01-24T10:57:40;2.40;45.80
67557;DHT22;54387;53.526;49.300;2023-01-24T11:02:54;2.50;45.50
67557;DHT22;54387;53.526;49.300;2023-01-24T11:05:20;2.70;45.90
67557;DHT22;54387;53.526;49.300;2023-01-24T11:07:48;2.90;45.50
67557;DHT22;54387;53.526;49.300;2023-01-24T11:10:25;3.00;44.60
67557;DHT22;54387;53.526;49.300;2023-01-24T11:12:58;2.90;44.70
67557;DHT22;54387;53.526;49.300;2023-01-24T11:15:29;2.80;45.20
67557;DHT22;54387;53.526;49.300;2023-01-24T11:18:06;2.80;44.60
67557;DHT22;54387;53.526;49.300;2023-01-24T11:20:33;2.50;44.00
67557;DHT22;54387;53.526;49.300;2023-01-24T11:25:51;2.30;43.80
67557;DHT22;54387;53.526;49.300;2023-01-24T11:30:50;2.30;43.10
67557;DHT22;54387;53.526;49.300;2023-01-24T11:35:55;2.40;44.00
67557;DHT22;54387;53.526;49.300;2023-01-24T11:38:28;2.40;42.60
67557;DHT22;54387;53.526;49.300;2023-01-24T11:46:55;1.40;41.90
67557;DHT22;54387;53.526;49.300;2023-01-24T11:56:45;0.00;42.50
67557;DHT22;54387;53.526;49.300;2023-01-24T12:04:35;-0.90;43.40
67557;DHT22;54387;53.526;49.300;2023-01-24T12:07:09;-1.00;43.90
67557;DHT22;54387;53.526;49.300;2023-01-24T12:09:43;-1.10;44.10
67557;DHT22;54387;53.526;49.300;2023-01-24T12:14:55;-1.40;44.30
67557;DHT22;54387;53.526;49.300;2023-01-24T12:22:47;-1.80;44.80
67557;DHT22;54387;53.526;49.300;2023-01-24T12:27:56;-2.00;45.10
67557;DHT22;54387;53.526;49.300;2023-01-24T12:30:33;-2.10;45.20
67557;DHT22;54387;53.526;49.300;2023-01-24T12:33:11;-2.20;45.40
67557;DHT22;54387;53.526;49.300;2023-01-24T12:35:40;-2.30;45.50
67557;DHT22;54387;53.526;49.300;2023-01-24T12:38:12;-2.40;45.70
67557;DHT22;54387;53.526;49.300;2023-01-24T12:43:12;-2.70;46.00
67557;DHT22;54387;53.526;49.300;2023-01-24T12:45:44;-2.80;46.10
67557;DHT22;54387;53.526;49.300;2023-01-24T12:50:42;-3.00;46.30
67557;DHT22;54387;53.526;49.300;2023-01-24T12:56:18;-3.30;46.50
67557;DHT22;54387;53.526;49.300;2023-01-24T12:58:47;-3.50;46.70
67557;DHT22;54387;53.526;49.300;2023-01-24T13:09:02;-4.00;47.40
67557;DHT22;54387;53.526;49.300;2023-01-24T13:11:34;-4.00;47.60
67557;DHT22;54387;53.526;49.300;2023-01-24T13:14:11;-4.10;47.60
67557;DHT22;54387;53.526;49.300;2023-01-24T13:21:43;-4.40;48.00
67557;DHT22;54387;53.526;49.300;2023-01-24T13:29:23;-4.70;48.60
67557;DHT22;54387;53.526;49.300;2023-01-24T13:31:58;-4.80;48.80
67557;DHT22;54387;53.526;49.300;2023-01-24T13:37:25;-4.90;49.30
67557;DHT22;54387;53.526;49.300;2023-01-24T13:40:04;-5.00;49.40
67557;DHT22;54387;53.526;49.300;2023-01-24T13:42:40;-5.10;49.70
67557;DHT22;54387;53.526;49.300;2023-01-24T13:47:57;-5.20;50.20
67557;DHT22;54387;53.526;49.300;2023-01-24T13:50:26;-5.30;50.30
67557;DHT22;54387;53.526;49.300;2023-01-24T13:52:53;-5.30;50.60
67557;DHT22;54387;53.526;49.300;2023-01-24T14:06:26;-5.60;51.30
67557;DHT22;54387;53.526;49.300;2023-01-24T14:16:12;-5.70;51.70
67557;DHT22;54387;53.526;49.300;2023-01-24T14:18:40;-5.70;51.70
67557;DHT22;54387;53.526;49.300;2023-01-24T14:21:12;-5.80;51.80
67557;DHT22;54387;53.526;49.300;2023-01-24T14:23:39;-5.80;52.00
67557;DHT22;54387;53.526;49.300;2023-01-24T14:26:05;-5.80;52.00
67557;DHT22;54387;53.526;49.300;2023-01-24T14:28:32;-5.90;52.20
67557;DHT22;54387;53.526;49.300;2023-01-24T14:31:05;-5.90;52.30
67557;DHT22;54387;53.526;49.300;2023-01-24T14:33:34;-5.90;52.30
67557;DHT22;54387;53.526;49.300;2023-01-24T14:36:07;-5.90;52.40
67557;DHT22;54387;53.526;49.300;2023-01-24T14:38:36;-5.90;52.50
67557;DHT22;54387;53.526;49.300;2023-01-24T14:41:03;-5.90;52.60
67557;DHT22;54387;53.526;49.300;2023-01-24T14:43:38;-6.00;52.60
67557;DHT22;54387;53.526;49.300;2023-01-24T14:46:23;-6.00;52.60
67557;DHT22;54387;53.526;49.300;2023-01-24T14:48:49;-6.00;52.60
67557;DHT22;54387;53.526;49.300;2023-01-24T14:51:17;-6.00;52.60
67557;DHT22;54387;53.526;49.300;2023-01-24T14:54:21;-6.00;52.60
67557;DHT22;54387;53.526;49.300;2023-01-24T14:56:48;-6.10;52.70
67557;DHT22;54387;53.526;49.300;2023-01-24T14:59:16;-6.10;52.70
67557;DHT22;54387;53.526;49.300;2023-01-24T15:01:44;-6.10;52.70
67557;DHT22;54387;53.526;49.300;2023-01-24T15:07:14;-6.10;52.80
67557;DHT22;54387;53.526;49.300;2023-01-24T15:09:41;-6.20;52.90
67557;DHT22;54387;53.526;49.300;2023-01-24T15:12:40;-6.20;53.00
67557;DHT22;54387;53.526;49.300;2023-01-24T15:15:00;-6.20;53.00
67557;DHT22;54387;53.526;49.300;2023-01-24T15:17:28;-6.20;53.10
67557;DHT22;54387;53.526;49.300;2023-01-24T15:19:56;-6.30;53.10
67557;DHT22;54387;53.526;49.300;2023-01-24T15:22:24;-6.30;53.30
67557;DHT22;54387;53.526;49.300;2023-01-24T15:24:52;-6.40;53.40
67557;DHT22;54387;53.526;49.300;2023-01-24T15:32:39;-6.50;53.90
67557;DHT22;54387;53.526;49.300;2023-01-24T15:40:33;-6.50;54.10
67557;DHT22;54387;53.526;49.300;2023-01-24T15:42:59;-6.50;54.10
67557;DHT22;54387;53.526;49.300;2023-01-24T15:45:45;-6.50;54.20
67557;DHT22;54387;53.526;49.300;2023-01-24T15:48:17;-6.50;54.20
67557;DHT22;54387;53.526;49.300;2023-01-24T15:50:52;-6.50;54.20
67557;DHT22;54387;53.526;49.300;2023-01-24T15:53:43;-6.50;54.10
67557;DHT22;54387;53.526;49.300;2023-01-24T15:56:10;-6.50;54.10
67557;DHT22;54387;53.526;49.300;2023-01-24T15:58:39;-6.50;54.20
67557;DHT22;54387;53.526;49.300;2023-01-24T16:01:08;-6.50;54.20
67557;DHT22;54387;53.526;49.300;2023-01-24T16:03:34;-6.50;54.20
67557;DHT22;54387;53.526;49.300;2023-01-24T16:06:03;-6.50;54.20
67557;DHT22;54387;53.526;49.300;2023-01-24T16:08:29;-6.50;54.30
67557;DHT22;54387;53.526;49.300;2023-01-24T16:10:55;-6.50;54.30
67557;DHT22;54387;53.526;49.300;2023-01-24T16:13:33;-6.50;54.20
67557;DHT22;54387;53.526;49.300;2023-01-24T16:16:01;-6.50;54.20
67557;DHT22;54387;53.526;49.300;2023-01-24T16:18:28;-6.50;54.30
67557;DHT22;54387;53.526;49.300;2023-01-24T16:20:54;-6.50;54.30
67557;DHT22;54387;53.526;49.300;2023-01-24T16:23:20;-6.60;54.30
67557;DHT22;54387;53.526;49.300;2023-01-24T16:25:46;-6.60;54.50
67557;DHT22;54387;53.526;49.300;2023-01-24T16:28:20;-6.60;54.50
67557;DHT22;54387;53.526;49.300;2023-01-24T16:30:48;-6.60;54.50
67557;DHT22;54387;53.526;49.300;2023-01-24T16:33:15;-6.60;54.50
67557;DHT22;54387;53.526;49.300;2023-01-24T16:35:41;-6.60;55.60
67557;DHT22;54387;53.526;49.300;2023-01-24T16:38:12;-6.60;54.80
67557;DHT22;54387;53.526;49.300;2023-01-24T16:40:39;-6.70;54.90
67557;DHT22;54387;53.526;49.300;2023-01-24T16:43:06;-6.70;55.00
67557;DHT22;54387;53.526;49.300;2023-01-24T16:45:33;-6.70;55.00
67557;DHT22;54387;53.526;49.300;2023-01-24T16:47:59;-6.70;55.10
67557;DHT22;54387;53.526;49.300;2023-01-24T16:50:29;-6.70;55.00
67557;DHT22;54387;53.526;49.300;2023-01-24T16:52:57;-6.70;55.10
67557;DHT22;54387;53.526;49.300;2023-01-24T16:55:24;-6.70;55.20
67557;DHT22;54387;53.526;49.300;2023-01-24T16:57:50;-6.60;55.40
67557;DHT22;54387;53.526;49.300;2023-01-24T17:00:17;-6.60;55.40
67557;DHT22;54387;53.526;49.300;2023-01-24T17:02:43;-6.60;55.40
67557;DHT22;54387;53.526;49.300;2023-01-24T17:05:10;-6.60;55.30
67557;DHT22;54387;53.526;49.300;2023-01-24T17:07:36;-6.60;55.30
67557;DHT22;54387;53.526;49.300;2023-01-24T17:10:02;-6.60;55.40
67557;DHT22;54387;53.526;49.300;2023-01-24T17:12:32;-6.60;55.40
67557;DHT22;54387;53.526;49.300;2023-01-24T17:14:58;-6.60;55.40
67557;DHT22;54387;53.526;49.300;2023-01-24T17:17:26;-6.60;55.50
67557;DHT22;54387;53.526;49.300;2023-01-24T17:19:52;-6.60;55.60
67557;DHT22;54387;53.526;49.300;2023-01-24T17:22:19;-6.60;55.60
67557;DHT22;54387;53.526;49.300;2023-01-24T17:24:45;-6.60;55.60
67557;DHT22;54387;53.526;49.300;2023-01-24T17:27:11;-6.60;55.70
67557;DHT22;54387;53.526;49.300;2023-01-24T17:29:37;-6.50;55.90
67557;DHT22;54387;53.526;49.300;2023-01-24T17:32:04;-6.60;55.70
67557;DHT22;54387;53.526;49.300;2023-01-24T17:34:31;-6.60;55.80
67557;DHT22;54387;53.526;49.300;2023-01-24T17:36:59;-6.60;55.80
67557;DHT22;54387;53.526;49.300;2023-01-24T17:39:25;-6.60;55.80
67557;DHT22;54387;53.526;49.300;2023-01-24T17:41:51;-6.60;55.80
67557;DHT22;54387;53.526;49.300;2023-01-24T17:44:18;-6.50;56.00
67557;DHT22;54387;53.526;49.300;2023-01-24T17:46:44;-6.60;55.90
67557;DHT22;54387;53.526;49.300;2023-01-24T17:49:10;-6.60;55.90
67557;DHT22;54387;53.526;49.300;2023-01-24T17:51:36;-6.60;55.80